Time;durP1;ratioP1;P1;durP2;ratioP2;P2;SDS_P1;SDS_P2;PMS_P1;PMS_P2;Temp;Humidity;BMP_temperature;BMP_pressure;BME280_temperature;BME280_humidity;BME280_pressure;Samples;Min_cycle;Max_cycle;Signal;HPM_P1;HPM_P2
2023/12/31 00:01:33;;;;;;;53.42;51.05;;;;;;;;;;5092243;28;20073;-62
2023/12/31 00:04:01;;;;;;;53.63;51.42;;;;;;;;;;5089166;28;20122;-63
2023/12/31 00:06:27;;;;;;;56.17;53.42;;;;;;;;;;5093698;28;20093;-62
2023/12/31 00:08:54;;;;;;;53.13;50.60;;;;;;;;;;5091909;28;20040;-63
2023/12/31 00:11:21;;;;;;;51.40;48.15;;;;;;;;;;5091967;28;20044;-63
2023/12/31 00:13:47;;;;;;;63.03;60.35;;;;;;;;;;5091879;28;20044;-62
2023/12/31 00:16:15;;;;;;;61.58;59.25;;;;;;;;;;5092690;28;20036;-63
2023/12/31 00:18:43;;;;;;;69.20;66.32;;;;;;;;;;5092039;28;20113;-64
2023/12/31 00:21:09;;;;;;;56.53;53.88;;;;;;;;;;5087625;28;20101;-64
2023/12/31 00:23:35;;;;;;;53.25;51.00;;;;;;;;;;5091645;28;20093;-67
2023/12/31 00:26:02;;;;;;;58.97;56.55;;;;;;;;;;5092734;28;20094;-64
2023/12/31 00:28:28;;;;;;;66.10;63.35;;;;;;;;;;5092743;28;20097;-64
2023/12/31 00:30:55;;;;;;;67.28;64.03;;;;;;;;;;5092244;28;20539;-65
2023/12/31 00:33:21;;;;;;;58.67;55.78;;;;;;;;;;5091454;28;20060;-64
2023/12/31 00:35:49;;;;;;;74.30;71.00;;;;;;;;;;5092224;28;20105;-64
2023/12/31 00:38:16;;;;;;;69.68;65.40;;;;;;;;;;5090772;28;20048;-64
2023/12/31 00:40:42;;;;;;;66.88;63.55;;;;;;;;;;5092029;28;20117;-65
2023/12/31 00:43:09;;;;;;;62.38;59.45;;;;;;;;;;5112320;28;20048;-65
2023/12/31 00:45:35;;;;;;;62.67;59.33;;;;;;;;;;5112338;28;20505;-65
2023/12/31 00:48:01;;;;;;;57.00;53.75;;;;;;;;;;5112279;28;20105;-66
2023/12/31 00:50:28;;;;;;;77.40;73.35;;;;;;;;;;5112302;28;20047;-65
2023/12/31 00:52:56;;;;;;;66.78;63.85;;;;;;;;;;5103068;28;20101;-65
2023/12/31 00:55:22;;;;;;;67.50;63.65;;;;;;;;;;5112142;28;20048;-64
2023/12/31 00:57:49;;;;;;;62.25;59.60;;;;;;;;;;5112121;28;20108;-64
2023/12/31 01:00:16;;;;;;;61.00;58.47;;;;;;;;;;5112240;28;20063;-66
2023/12/31 01:02:42;;;;;;;62.95;60.30;;;;;;;;;;5112194;28;20047;-66
2023/12/31 01:05:09;;;;;;;66.10;63.40;;;;;;;;;;5111761;28;20035;-65
2023/12/31 01:07:36;;;;;;;63.33;60.58;;;;;;;;;;5092221;28;20056;-66
2023/12/31 01:10:04;;;;;;;63.95;61.13;;;;;;;;;;5090291;28;20048;-64
2023/12/31 01:12:31;;;;;;;66.22;63.00;;;;;;;;;;5109864;28;20093;-65
2023/12/31 01:14:57;;;;;;;63.22;59.85;;;;;;;;;;5112065;28;20048;-64
2023/12/31 01:17:24;;;;;;;68.80;65.75;;;;;;;;;;5111743;28;20089;-64
2023/12/31 01:19:50;;;;;;;75.28;71.22;;;;;;;;;;5100101;28;20567;-66
2023/12/31 01:22:16;;;;;;;64.65;61.80;;;;;;;;;;5091246;28;20044;-68
2023/12/31 01:24:43;;;;;;;66.68;63.83;;;;;;;;;;5092910;28;20101;-65
2023/12/31 01:27:11;;;;;;;72.38;69.03;;;;;;;;;;5090656;28;20113;-65
2023/12/31 01:29:37;;;;;;;39.17;37.50;;;;;;;;;;5093558;28;20461;-65
2023/12/31 01:32:04;;;;;;;57.85;55.50;;;;;;;;;;5095683;28;20052;-65
2023/12/31 01:34:31;;;;;;;74.78;71.43;;;;;;;;;;5112808;28;20043;-64
2023/12/31 01:36:57;;;;;;;64.55;61.72;;;;;;;;;;5116046;28;20077;-64
2023/12/31 01:39:24;;;;;;;69.95;66.85;;;;;;;;;;5115726;28;20125;-63
2023/12/31 01:41:50;;;;;;;69.25;66.35;;;;;;;;;;5115504;28;20528;-65
2023/12/31 01:44:18;;;;;;;62.72;60.13;;;;;;;;;;5101942;28;20101;-65
2023/12/31 01:46:45;;;;;;;66.95;63.92;;;;;;;;;;5095479;28;20077;-64
2023/12/31 01:49:12;;;;;;;65.82;62.85;;;;;;;;;;5095199;28;20048;-64
2023/12/31 01:51:38;;;;;;;74.68;71.35;;;;;;;;;;5095259;28;20052;-64
2023/12/31 01:54:05;;;;;;;69.30;66.15;;;;;;;;;;5107078;28;20542;-65
2023/12/31 01:56:33;;;;;;;65.65;62.80;;;;;;;;;;5115440;28;20089;-63
2023/12/31 01:59:00;;;;;;;57.20;54.95;;;;;;;;;;5115514;28;20055;-64
2023/12/31 02:01:28;;;;;;;36.00;34.15;;;;;;;;;;5094694;28;20449;-64
2023/12/31 02:03:53;;;;;;;66.40;62.80;;;;;;;;;;5095255;28;20056;-66
2023/12/31 02:06:20;;;;;;;59.60;56.80;;;;;;;;;;5094634;28;20124;-64
2023/12/31 02:08:46;;;;;;;68.65;65.32;;;;;;;;;;5095000;28;20126;-64
2023/12/31 02:11:13;;;;;;;68.18;65.40;;;;;;;;;;5094788;28;20052;-64
2023/12/31 02:13:39;;;;;;;52.00;49.45;;;;;;;;;;5094616;28;20475;-64
2023/12/31 02:16:13;;;;;;;61.20;58.88;;;;;;;;;;5094757;28;20101;-64
2023/12/31 02:18:41;;;;;;;65.90;63.10;;;;;;;;;;5093610;28;20059;-63
2023/12/31 02:21:07;;;;;;;57.75;55.17;;;;;;;;;;5094720;28;20105;-64
2023/12/31 02:23:34;;;;;;;36.28;34.67;;;;;;;;;;5094564;28;20444;-64
2023/12/31 02:26:05;;;;;;;77.25;73.90;;;;;;;;;;5094664;28;20043;-64
2023/12/31 02:28:32;;;;;;;62.75;60.03;;;;;;;;;;5094472;28;20044;-64
2023/12/31 02:30:58;;;;;;;41.97;39.17;;;;;;;;;;5094560;28;20456;-64
2023/12/31 02:33:25;;;;;;;63.75;61.33;;;;;;;;;;5094223;28;20051;-63
2023/12/31 02:35:51;;;;;;;66.40;63.70;;;;;;;;;;5096652;28;20387;-63
2023/12/31 02:38:18;;;;;;;63.72;61.15;;;;;;;;;;5097112;28;20047;-64
2023/12/31 02:40:44;;;;;;;73.00;69.97;;;;;;;;;;5114037;28;20059;-63
2023/12/31 02:43:12;;;;;;;63.35;60.53;;;;;;;;;;5114511;28;20084;-64
2023/12/31 02:45:38;;;;;;;58.22;55.65;;;;;;;;;;5114610;28;20051;-64
2023/12/31 02:48:05;;;;;;;59.63;57.28;;;;;;;;;;5106312;28;20052;-64
2023/12/31 02:50:32;;;;;;;60.35;57.83;;;;;;;;;;5094260;28;20048;-64
2023/12/31 02:52:58;;;;;;;57.53;55.17;;;;;;;;;;5092908;28;20502;-64
2023/12/31 02:55:25;;;;;;;64.25;61.55;;;;;;;;;;5093915;28;20048;-65
2023/12/31 02:57:51;;;;;;;57.40;54.60;;;;;;;;;;5093812;28;20106;-64
2023/12/31 03:00:19;;;;;;;69.43;66.25;;;;;;;;;;5095658;28;20056;-64
2023/12/31 03:02:46;;;;;;;77.43;73.90;;;;;;;;;;5114384;28;20051;-65
2023/12/31 03:05:13;;;;;;;78.82;74.93;;;;;;;;;;5114397;28;20106;-64
2023/12/31 03:07:39;;;;;;;62.13;59.70;;;;;;;;;;5104999;28;20048;-65
2023/12/31 03:10:06;;;;;;;70.10;66.70;;;;;;;;;;5099188;28;20089;-65
2023/12/31 03:12:33;;;;;;;75.43;72.22;;;;;;;;;;5113721;28;20051;-64
2023/12/31 03:14:59;;;;;;;64.45;61.70;;;;;;;;;;5113906;28;20051;-66
2023/12/31 03:17:27;;;;;;;71.35;68.18;;;;;;;;;;5113843;28;20092;-64
2023/12/31 03:19:53;;;;;;;64.28;61.25;;;;;;;;;;5113980;28;20051;-64
2023/12/31 03:22:20;;;;;;;57.80;55.05;;;;;;;;;;5113967;28;20100;-64
2023/12/31 03:24:46;;;;;;;61.03;58.17;;;;;;;;;;5093742;28;20094;-64
2023/12/31 03:27:13;;;;;;;60.90;58.80;;;;;;;;;;5113134;28;20051;-64
2023/12/31 03:29:39;;;;;;;49.53;47.13;;;;;;;;;;5113749;28;20414;-65
2023/12/31 03:32:06;;;;;;;65.40;61.75;;;;;;;;;;5113897;28;20128;-64
2023/12/31 03:34:34;;;;;;;67.75;64.82;;;;;;;;;;5101861;28;20051;-64
2023/12/31 03:37:00;;;;;;;69.10;64.30;;;;;;;;;;5093601;28;20087;-64
2023/12/31 03:39:27;;;;;;;64.85;62.20;;;;;;;;;;5091867;28;20048;-65
2023/12/31 03:41:53;;;;;;;42.58;40.65;;;;;;;;;;5092123;28;20410;-64
2023/12/31 03:44:20;;;;;;;63.92;60.95;;;;;;;;;;5092864;28;20526;-65
2023/12/31 03:46:46;;;;;;;80.70;77.35;;;;;;;;;;5093158;28;20056;-65
2023/12/31 03:49:13;;;;;;;68.57;65.70;;;;;;;;;;5092925;28;20052;-65
2023/12/31 03:51:41;;;;;;;72.57;69.57;;;;;;;;;;5092969;28;20537;-65
2023/12/31 03:54:08;;;;;;;62.03;58.78;;;;;;;;;;5092832;28;20040;-65
2023/12/31 03:56:35;;;;;;;69.22;66.35;;;;;;;;;;5091547;28;20102;-65
2023/12/31 03:59:01;;;;;;;42.67;40.60;;;;;;;;;;5091482;28;20472;-64
2023/12/31 04:01:28;;;;;;;47.10;45.03;;;;;;;;;;5092622;28;20391;-64
2023/12/31 04:03:54;;;;;;;68.22;65.28;;;;;;;;;;5092653;28;20055;-64
2023/12/31 04:06:21;;;;;;;67.40;64.63;;;;;;;;;;5092561;28;20044;-64
2023/12/31 04:08:49;;;;;;;64.15;61.03;;;;;;;;;;5092417;28;20051;-64
2023/12/31 04:11:15;;;;;;;70.63;67.03;;;;;;;;;;5092448;28;20557;-64
2023/12/31 04:13:42;;;;;;;64.80;61.83;;;;;;;;;;5092428;28;20470;-63
2023/12/31 04:16:08;;;;;;;70.10;67.00;;;;;;;;;;5091213;28;20113;-63
2023/12/31 04:18:35;;;;;;;69.55;66.47;;;;;;;;;;5092165;28;20049;-63
2023/12/31 04:21:02;;;;;;;66.85;63.35;;;;;;;;;;5092572;28;20072;-64
2023/12/31 04:23:28;;;;;;;59.25;56.92;;;;;;;;;;5092963;28;20048;-64
2023/12/31 04:25:56;;;;;;;66.22;63.00;;;;;;;;;;5110024;28;20043;-63
2023/12/31 04:28:23;;;;;;;72.10;69.00;;;;;;;;;;5112460;28;20112;-64
2023/12/31 04:30:49;;;;;;;65.18;62.25;;;;;;;;;;5106351;28;20128;-65
2023/12/31 04:33:16;;;;;;;69.40;65.75;;;;;;;;;;5090998;28;20086;-64
2023/12/31 04:35:42;;;;;;;66.75;63.20;;;;;;;;;;5092072;28;20051;-64
2023/12/31 04:38:09;;;;;;;72.65;69.60;;;;;;;;;;5092143;28;20831;-63
2023/12/31 04:40:35;;;;;;;61.28;58.65;;;;;;;;;;5092098;28;20048;-63
2023/12/31 04:43:03;;;;;;;72.30;69.18;;;;;;;;;;5091940;28;20047;-63
2023/12/31 04:45:30;;;;;;;73.07;69.45;;;;;;;;;;5091971;28;20486;-63
2023/12/31 04:47:57;;;;;;;61.83;59.33;;;;;;;;;;5092168;28;20052;-63
2023/12/31 04:50:23;;;;;;;63.65;60.95;;;;;;;;;;5090599;28;20528;-64
2023/12/31 04:52:49;;;;;;;69.82;66.85;;;;;;;;;;5092179;28;20052;-64
2023/12/31 04:55:16;;;;;;;75.93;72.63;;;;;;;;;;5092017;28;20101;-64
2023/12/31 04:57:42;;;;;;;68.50;65.60;;;;;;;;;;5091701;28;20052;-64
2023/12/31 05:00:11;;;;;;;63.88;61.28;;;;;;;;;;5092541;28;20571;-65
2023/12/31 05:02:38;;;;;;;63.67;61.28;;;;;;;;;;5112100;28;20053;-63
2023/12/31 05:05:05;;;;;;;68.25;65.20;;;;;;;;;;5111440;28;20059;-64
2023/12/31 05:07:31;;;;;;;64.70;61.80;;;;;;;;;;5092746;28;20052;-63
2023/12/31 05:09:58;;;;;;;71.13;68.28;;;;;;;;;;5091768;28;20044;-63
2023/12/31 05:12:25;;;;;;;66.90;63.45;;;;;;;;;;5091541;28;20067;-64
2023/12/31 05:14:51;;;;;;;79.53;76.22;;;;;;;;;;5091963;28;20052;-65
2023/12/31 05:17:19;;;;;;;68.35;65.22;;;;;;;;;;5110175;28;20052;-66
2023/12/31 05:19:47;;;;;;;70.30;67.35;;;;;;;;;;5111886;28;20040;-64
2023/12/31 05:22:13;;;;;;;67.78;64.82;;;;;;;;;;5112056;28;20073;-64
2023/12/31 05:24:40;;;;;;;63.60;61.20;;;;;;;;;;5092289;28;20097;-63
2023/12/31 05:27:06;;;;;;;67.97;64.75;;;;;;;;;;5091812;28;20060;-64
2023/12/31 05:29:33;;;;;;;70.15;67.15;;;;;;;;;;5091521;28;20435;-64
2023/12/31 05:31:59;;;;;;;78.78;75.15;;;;;;;;;;5090760;28;20436;-65
2023/12/31 05:34:27;;;;;;;74.10;71.18;;;;;;;;;;5091520;28;20048;-64
2023/12/31 05:36:53;;;;;;;46.15;43.28;;;;;;;;;;5091705;28;20416;-64
2023/12/31 05:39:20;;;;;;;81.80;78.72;;;;;;;;;;5091415;28;20044;-64
2023/12/31 05:41:46;;;;;;;72.25;69.20;;;;;;;;;;5090400;28;20060;-64
2023/12/31 05:44:13;;;;;;;75.00;71.75;;;;;;;;;;5091452;28;20056;-63
2023/12/31 05:46:39;;;;;;;51.83;49.17;;;;;;;;;;5099555;28;20464;-63
2023/12/31 05:49:06;;;;;;;67.45;64.57;;;;;;;;;;5111660;28;20052;-63
2023/12/31 05:51:34;;;;;;;79.15;75.82;;;;;;;;;;5111844;28;20051;-63
2023/12/31 05:54:00;;;;;;;76.72;73.50;;;;;;;;;;5110521;28;20050;-63
2023/12/31 05:56:26;;;;;;;69.97;66.55;;;;;;;;;;5090751;28;20113;-63
2023/12/31 05:58:53;;;;;;;78.28;74.93;;;;;;;;;;5090179;28;20097;-64
2023/12/31 06:01:19;;;;;;;78.30;75.15;;;;;;;;;;5106326;28;20566;-64
2023/12/31 06:03:46;;;;;;;52.42;49.75;;;;;;;;;;5111544;28;20680;-63
2023/12/31 06:06:12;;;;;;;73.47;70.30;;;;;;;;;;5111693;28;20043;-63
2023/12/31 06:08:40;;;;;;;61.53;58.72;;;;;;;;;;5111596;28;20051;-65
2023/12/31 06:11:07;;;;;;;81.70;78.43;;;;;;;;;;5099471;28;20039;-64
2023/12/31 06:13:33;;;;;;;74.50;70.78;;;;;;;;;;5070931;28;20636;-63
2023/12/31 06:16:01;;;;;;;68.60;65.50;;;;;;;;;;5087861;28;20851;-63
2023/12/31 06:18:27;;;;;;;66.50;63.35;;;;;;;;;;5094162;28;20070;-64
2023/12/31 06:20:54;;;;;;;75.68;72.30;;;;;;;;;;5094490;28;20044;-65
2023/12/31 06:23:21;;;;;;;70.07;66.82;;;;;;;;;;5094796;28;20073;-64
2023/12/31 06:25:49;;;;;;;50.60;47.55;;;;;;;;;;5106008;28;20391;-65
2023/12/31 06:28:15;;;;;;;71.53;68.50;;;;;;;;;;5095457;28;20135;-64
2023/12/31 06:30:42;;;;;;;71.28;67.90;;;;;;;;;;5114523;28;20543;-64
2023/12/31 06:33:08;;;;;;;80.40;77.05;;;;;;;;;;5097196;28;20048;-64
2023/12/31 06:35:35;;;;;;;83.68;79.57;;;;;;;;;;5111258;28;20052;-64
2023/12/31 06:38:01;;;;;;;79.45;76.30;;;;;;;;;;5098916;28;20093;-64
2023/12/31 06:40:27;;;;;;;71.82;68.53;;;;;;;;;;5102287;28;20554;-64
2023/12/31 06:42:55;;;;;;;70.55;67.47;;;;;;;;;;5094801;28;20111;-65
2023/12/31 06:45:22;;;;;;;62.42;59.78;;;;;;;;;;5093345;28;20559;-64
2023/12/31 06:47:48;;;;;;;78.75;75.50;;;;;;;;;;5093789;28;20060;-64
2023/12/31 06:50:15;;;;;;;73.90;70.78;;;;;;;;;;5093906;28;20056;-64
2023/12/31 06:52:42;;;;;;;46.25;43.65;;;;;;;;;;5093864;28;20414;-64
2023/12/31 06:55:10;;;;;;;76.20;72.82;;;;;;;;;;5093972;28;20106;-64
2023/12/31 06:57:36;;;;;;;75.82;72.28;;;;;;;;;;5089997;28;20117;-64
2023/12/31 07:00:07;;;;;;;88.07;83.63;;;;;;;;;;5067039;28;20044;-65
2023/12/31 07:02:34;;;;;;;87.65;83.25;;;;;;;;;;5016257;28;20040;-71
2023/12/31 07:05:00;;;;;;;86.15;81.55;;;;;;;;;;5037782;28;20510;-65
2023/12/31 07:07:27;;;;;;;84.30;80.32;;;;;;;;;;5093385;28;20560;-64
2023/12/31 07:09:54;;;;;;;78.60;75.30;;;;;;;;;;5093753;28;20052;-64
2023/12/31 07:12:20;;;;;;;80.43;76.82;;;;;;;;;;5109723;28;20077;-64
2023/12/31 07:14:47;;;;;;;68.22;65.40;;;;;;;;;;5096858;28;20052;-64
2023/12/31 07:17:14;;;;;;;71.35;67.78;;;;;;;;;;5069772;28;20052;-64
2023/12/31 07:19:41;;;;;;;69.07;66.03;;;;;;;;;;5083142;28;20059;-64
2023/12/31 07:22:07;;;;;;;72.57;69.35;;;;;;;;;;5076406;28;20098;-64
2023/12/31 07:24:34;;;;;;;74.78;71.57;;;;;;;;;;5072801;28;20052;-65
2023/12/31 07:27:00;;;;;;;74.20;70.55;;;;;;;;;;5076379;28;20093;-64
2023/12/31 07:29:27;;;;;;;72.50;69.30;;;;;;;;;;5080427;28;20556;-64
2023/12/31 07:31:53;;;;;;;66.43;63.05;;;;;;;;;;5072907;28;20053;-63
2023/12/31 07:34:22;;;;;;;77.03;73.70;;;;;;;;;;5092436;28;20052;-64
2023/12/31 07:36:48;;;;;;;77.50;74.38;;;;;;;;;;5090294;28;20052;-64
2023/12/31 07:39:14;;;;;;;70.90;67.78;;;;;;;;;;5087801;28;20048;-64
2023/12/31 07:41:41;;;;;;;71.18;67.53;;;;;;;;;;5085828;28;20053;-63
2023/12/31 07:44:07;;;;;;;72.03;68.95;;;;;;;;;;5076137;28;20106;-63
2023/12/31 07:46:34;;;;;;;68.38;65.55;;;;;;;;;;5076192;28;20093;-65
2023/12/31 07:49:00;;;;;;;87.65;83.57;;;;;;;;;;5088308;28;20040;-63
2023/12/31 07:51:28;;;;;;;83.63;79.53;;;;;;;;;;5096489;28;20485;-63
2023/12/31 07:53:55;;;;;;;77.53;73.95;;;;;;;;;;5092249;28;20052;-64
2023/12/31 07:56:21;;;;;;;55.33;52.28;;;;;;;;;;5091527;28;20395;-63
2023/12/31 07:58:47;;;;;;;55.20;52.47;;;;;;;;;;5078573;28;20464;-64
2023/12/31 08:01:14;;;;;;;80.32;76.57;;;;;;;;;;5089975;28;20055;-65
2023/12/31 08:03:40;;;;;;;83.38;79.70;;;;;;;;;;5091605;28;20098;-63
2023/12/31 08:06:07;;;;;;;88.57;84.70;;;;;;;;;;5082802;28;20102;-63
2023/12/31 08:08:35;;;;;;;86.47;82.93;;;;;;;;;;5091189;28;20040;-64
2023/12/31 08:11:01;;;;;;;90.50;86.25;;;;;;;;;;5080098;28;20086;-63
2023/12/31 08:13:28;;;;;;;89.03;85.13;;;;;;;;;;5090743;28;20117;-63
2023/12/31 08:15:56;;;;;;;100.43;95.80;;;;;;;;;;5086821;28;20052;-64
2023/12/31 08:18:22;;;;;;;98.57;94.63;;;;;;;;;;5091445;28;20040;-63
2023/12/31 08:20:49;;;;;;;95.10;91.00;;;;;;;;;;5077254;28;20060;-63
2023/12/31 08:23:15;;;;;;;90.28;86.60;;;;;;;;;;5089381;28;20040;-63
2023/12/31 08:25:43;;;;;;;52.05;49.33;;;;;;;;;;5082889;28;20456;-63
2023/12/31 08:28:10;;;;;;;87.72;84.03;;;;;;;;;;5088692;28;20056;-63
2023/12/31 08:30:36;;;;;;;99.22;94.70;;;;;;;;;;5076352;28;20055;-63
2023/12/31 08:33:03;;;;;;;87.82;83.68;;;;;;;;;;5091048;28;20502;-63
2023/12/31 08:35:29;;;;;;;89.78;85.70;;;;;;;;;;5073147;28;20052;-63
2023/12/31 08:37:56;;;;;;;96.03;91.10;;;;;;;;;;5086163;28;20567;-63
2023/12/31 08:40:22;;;;;;;99.18;94.72;;;;;;;;;;5087569;28;20040;-63
2023/12/31 08:42:50;;;;;;;101.57;97.18;;;;;;;;;;5088752;28;20139;-64
2023/12/31 08:45:17;;;;;;;98.30;94.10;;;;;;;;;;5086103;28;20044;-63
2023/12/31 08:47:43;;;;;;;104.22;100.05;;;;;;;;;;5091405;28;20043;-63
2023/12/31 08:50:11;;;;;;;106.60;102.50;;;;;;;;;;5087961;28;20059;-63
2023/12/31 08:52:39;;;;;;;101.82;97.82;;;;;;;;;;5091824;28;20052;-63
2023/12/31 08:55:07;;;;;;;102.25;97.57;;;;;;;;;;5090115;28;20044;-63
2023/12/31 08:57:33;;;;;;;64.88;61.85;;;;;;;;;;5090643;28;20478;-64
2023/12/31 09:00:02;;;;;;;107.03;102.63;;;;;;;;;;5091573;28;20113;-63
2023/12/31 09:02:29;;;;;;;74.43;71.28;;;;;;;;;;5076566;28;20486;-63
2023/12/31 09:04:55;;;;;;;98.97;94.95;;;;;;;;;;5091573;28;20097;-62
2023/12/31 09:07:22;;;;;;;88.88;85.18;;;;;;;;;;5084502;28;20490;-63
2023/12/31 09:09:48;;;;;;;114.35;109.10;;;;;;;;;;5074751;28;20048;-63
2023/12/31 09:12:15;;;;;;;116.70;111.40;;;;;;;;;;5083366;28;20093;-64
2023/12/31 09:14:41;;;;;;;107.55;103.00;;;;;;;;;;5088537;28;20570;-63
2023/12/31 09:17:10;;;;;;;117.35;112.53;;;;;;;;;;5073904;28;20052;-63
2023/12/31 09:19:37;;;;;;;123.68;118.55;;;;;;;;;;5081633;28;20468;-63
2023/12/31 09:22:03;;;;;;;118.95;113.72;;;;;;;;;;5082007;28;20098;-63
2023/12/31 09:24:30;;;;;;;116.05;111.10;;;;;;;;;;5090576;28;20531;-63
2023/12/31 09:26:57;;;;;;;109.20;104.40;;;;;;;;;;5085717;28;20097;-63
2023/12/31 09:29:24;;;;;;;120.00;115.13;;;;;;;;;;5079708;28;20044;-63
2023/12/31 09:31:50;;;;;;;123.43;118.05;;;;;;;;;;5079419;28;20130;-64
2023/12/31 09:34:18;;;;;;;123.63;118.82;;;;;;;;;;5082525;28;20045;-63
2023/12/31 09:36:45;;;;;;;119.78;115.18;;;;;;;;;;5091267;28;20109;-63
2023/12/31 09:39:12;;;;;;;127.93;122.85;;;;;;;;;;5089052;28;20070;-63
2023/12/31 09:41:40;;;;;;;135.95;130.05;;;;;;;;;;5078614;28;20055;-65
2023/12/31 09:44:07;;;;;;;132.75;126.93;;;;;;;;;;5071495;28;20048;-63
2023/12/31 09:46:38;;;;;;;99.22;93.63;;;;;;;;;;5088955;28;20438;-63
2023/12/31 09:49:04;;;;;;;138.23;131.95;;;;;;;;;;5085690;28;20044;-65
2023/12/31 09:51:33;;;;;;;130.13;124.30;;;;;;;;;;5082570;28;20093;-64
2023/12/31 09:54:01;;;;;;;132.38;126.43;;;;;;;;;;5096627;28;20055;-64
2023/12/31 09:56:30;;;;;;;120.70;115.28;;;;;;;;;;5094132;28;20122;-65
2023/12/31 09:58:57;;;;;;;89.70;84.25;;;;;;;;;;5101550;28;20394;-63
2023/12/31 10:01:25;;;;;;;124.22;118.13;;;;;;;;;;5088470;28;20052;-63
2023/12/31 10:03:52;;;;;;;140.18;133.77;;;;;;;;;;5085837;28;20052;-63
2023/12/31 10:06:19;;;;;;;109.43;103.95;;;;;;;;;;5093165;28;20453;-66
2023/12/31 10:08:47;;;;;;;143.43;138.05;;;;;;;;;;5086480;28;20058;-63
2023/12/31 10:11:14;;;;;;;137.52;131.90;;;;;;;;;;5095987;28;20048;-64
2023/12/31 10:13:40;;;;;;;125.25;119.75;;;;;;;;;;5087525;28;20040;-64
2023/12/31 10:16:13;;;;;;;154.00;147.48;;;;;;;;;;5094474;28;20047;-65
2023/12/31 10:18:40;;;;;;;145.93;140.18;;;;;;;;;;5084008;28;20105;-64
2023/12/31 10:21:08;;;;;;;135.77;130.90;;;;;;;;;;5094250;28;20490;-64
2023/12/31 10:23:35;;;;;;;148.93;143.57;;;;;;;;;;5090631;28;20490;-64
2023/12/31 10:26:02;;;;;;;159.23;153.35;;;;;;;;;;5091534;28;20101;-63
2023/12/31 10:28:29;;;;;;;154.75;149.05;;;;;;;;;;5093191;28;20052;-62
2023/12/31 10:30:55;;;;;;;163.82;158.40;;;;;;;;;;5093698;28;20101;-64
2023/12/31 10:33:28;;;;;;;182.98;176.93;;;;;;;;;;5091986;28;20052;-63
2023/12/31 10:36:02;;;;;;;169.02;163.00;;;;;;;;;;5094436;28;20090;-64
2023/12/31 10:38:29;;;;;;;169.95;164.23;;;;;;;;;;5091634;28;20056;-63
2023/12/31 10:41:06;;;;;;;181.43;175.10;;;;;;;;;;5090985;28;20051;-63
2023/12/31 10:43:34;;;;;;;178.52;172.50;;;;;;;;;;5089478;28;20039;-64
2023/12/31 10:46:01;;;;;;;177.43;171.23;;;;;;;;;;5114296;28;20039;-63
2023/12/31 10:48:27;;;;;;;194.43;188.13;;;;;;;;;;5110339;28;20040;-64
2023/12/31 10:50:54;;;;;;;133.43;128.25;;;;;;;;;;5093532;28;20706;-64
2023/12/31 10:53:22;;;;;;;202.00;195.13;;;;;;;;;;5094645;28;20044;-64
2023/12/31 10:55:49;;;;;;;177.02;171.30;;;;;;;;;;5097515;28;20101;-65
2023/12/31 10:58:16;;;;;;;188.18;181.50;;;;;;;;;;5095957;28;20064;-64
2023/12/31 11:00:45;;;;;;;189.27;182.68;;;;;;;;;;5084314;28;20387;-63
2023/12/31 11:03:13;;;;;;;200.90;194.38;;;;;;;;;;5085697;28;20491;-63
2023/12/31 11:05:41;;;;;;;189.27;182.45;;;;;;;;;;5087216;28;20521;-63
2023/12/31 11:08:09;;;;;;;175.73;169.65;;;;;;;;;;5093420;28;20056;-63
2023/12/31 11:10:35;;;;;;;199.60;193.05;;;;;;;;;;5106561;28;20043;-63
2023/12/31 11:13:03;;;;;;;190.90;184.45;;;;;;;;;;5098108;28;20131;-66
2023/12/31 11:15:30;;;;;;;187.25;180.65;;;;;;;;;;5104365;28;20090;-64
2023/12/31 11:18:08;;;;;;;199.52;192.70;;;;;;;;;;5113855;28;20052;-64
2023/12/31 11:20:50;;;;;;;153.23;147.27;;;;;;;;;;5095889;28;20473;-62
2023/12/31 11:23:23;;;;;;;195.32;188.75;;;;;;;;;;5079292;28;20052;-62
2023/12/31 11:25:50;;;;;;;192.38;185.65;;;;;;;;;;5093398;28;20047;-63
2023/12/31 11:28:17;;;;;;;180.32;173.77;;;;;;;;;;5093135;28;20093;-63
2023/12/31 11:30:49;;;;;;;209.13;202.57;;;;;;;;;;5092095;28;20109;-62
2023/12/31 11:33:17;;;;;;;188.40;181.80;;;;;;;;;;5092500;28;20044;-63
2023/12/31 11:35:45;;;;;;;204.65;198.10;;;;;;;;;;5087468;28;20810;-63
2023/12/31 11:38:11;;;;;;;185.35;179.15;;;;;;;;;;5085060;28;20094;-62
2023/12/31 11:40:38;;;;;;;147.23;141.80;;;;;;;;;;5090571;28;20448;-63
2023/12/31 11:43:10;;;;;;;192.35;185.77;;;;;;;;;;5092927;28;20055;-65
2023/12/31 11:45:40;;;;;;;200.02;193.30;;;;;;;;;;5076681;28;20048;-63
2023/12/31 11:48:16;;;;;;;193.07;186.00;;;;;;;;;;5088398;28;20254;-63
2023/12/31 11:50:44;;;;;;;183.95;177.57;;;;;;;;;;5088210;28;20127;-63
2023/12/31 11:53:11;;;;;;;197.68;191.05;;;;;;;;;;5090391;28;20551;-64
2023/12/31 11:55:38;;;;;;;199.80;193.80;;;;;;;;;;5091145;28;20133;-63
2023/12/31 11:58:07;;;;;;;199.18;192.57;;;;;;;;;;5091422;28;20062;-63
2023/12/31 12:00:33;;;;;;;192.13;185.23;;;;;;;;;;5081946;28;20055;-63
2023/12/31 12:03:02;;;;;;;206.60;199.60;;;;;;;;;;5091965;28;20051;-64
2023/12/31 12:05:29;;;;;;;202.98;196.32;;;;;;;;;;5092395;28;20048;-63
2023/12/31 12:07:57;;;;;;;188.05;181.45;;;;;;;;;;5082357;28;20556;-63
2023/12/31 12:10:23;;;;;;;193.95;187.32;;;;;;;;;;5085026;28;20082;-63
2023/12/31 12:12:53;;;;;;;139.45;133.15;;;;;;;;;;5084082;28;20463;-64
2023/12/31 12:15:20;;;;;;;197.38;189.32;;;;;;;;;;5087056;28;20040;-64
2023/12/31 12:17:46;;;;;;;216.80;209.20;;;;;;;;;;5092277;28;20048;-63
2023/12/31 12:20:13;;;;;;;195.30;188.32;;;;;;;;;;5086721;28;20628;-63
2023/12/31 12:22:40;;;;;;;199.60;193.07;;;;;;;;;;5077597;28;20048;-64
2023/12/31 12:25:08;;;;;;;190.60;184.10;;;;;;;;;;5085294;28;20044;-63
2023/12/31 12:27:35;;;;;;;192.10;185.60;;;;;;;;;;5087025;28;20495;-64
2023/12/31 12:30:01;;;;;;;203.77;196.82;;;;;;;;;;5090023;28;20482;-63
2023/12/31 12:32:28;;;;;;;181.57;175.20;;;;;;;;;;5088061;28;20114;-63
2023/12/31 12:34:58;;;;;;;215.93;208.52;;;;;;;;;;5084414;28;20132;-64
2023/12/31 12:37:25;;;;;;;196.02;189.32;;;;;;;;;;5086804;28;20040;-66
2023/12/31 12:39:55;;;;;;;213.18;206.25;;;;;;;;;;5090394;28;20105;-64
2023/12/31 12:42:25;;;;;;;205.32;198.23;;;;;;;;;;5086094;28;20559;-63
2023/12/31 12:44:51;;;;;;;201.27;195.07;;;;;;;;;;5090708;28;20105;-63
2023/12/31 12:47:20;;;;;;;206.52;199.82;;;;;;;;;;5095886;28;20040;-63
2023/12/31 12:49:47;;;;;;;202.40;195.82;;;;;;;;;;5091408;28;20101;-63
2023/12/31 12:52:14;;;;;;;214.55;207.77;;;;;;;;;;5093047;28;20089;-63
2023/12/31 12:54:40;;;;;;;215.10;208.13;;;;;;;;;;5095150;28;20070;-63
2023/12/31 12:57:07;;;;;;;206.80;199.77;;;;;;;;;;5104898;28;20052;-63
2023/12/31 12:59:35;;;;;;;204.75;197.90;;;;;;;;;;5111770;28;20155;-63
2023/12/31 13:02:02;;;;;;;211.35;204.63;;;;;;;;;;5111555;28;20047;-63
2023/12/31 13:04:29;;;;;;;208.80;201.93;;;;;;;;;;5111880;28;20086;-63
2023/12/31 13:06:58;;;;;;;183.98;177.77;;;;;;;;;;5108475;28;20494;-64
2023/12/31 13:09:24;;;;;;;205.95;199.52;;;;;;;;;;5071467;28;20079;-65
2023/12/31 13:11:51;;;;;;;148.23;143.05;;;;;;;;;;5071456;28;20433;-64
2023/12/31 13:14:17;;;;;;;182.77;176.82;;;;;;;;;;5071069;28;20060;-65
2023/12/31 13:16:45;;;;;;;200.73;194.15;;;;;;;;;;5071340;28;20068;-63
2023/12/31 13:19:12;;;;;;;203.20;196.98;;;;;;;;;;5071220;28;20090;-64
2023/12/31 13:21:38;;;;;;;192.68;185.90;;;;;;;;;;5080169;28;20044;-64
2023/12/31 13:24:05;;;;;;;192.23;185.73;;;;;;;;;;5091255;28;20048;-64
2023/12/31 13:26:31;;;;;;;175.43;169.48;;;;;;;;;;5094103;28;20093;-65
2023/12/31 13:28:58;;;;;;;184.50;178.30;;;;;;;;;;5095392;28;20044;-64
2023/12/31 13:31:25;;;;;;;195.60;189.00;;;;;;;;;;5093911;28;20062;-63
2023/12/31 13:33:53;;;;;;;199.25;192.23;;;;;;;;;;5092087;28;20502;-66
2023/12/31 13:36:19;;;;;;;202.07;195.32;;;;;;;;;;5088241;28;20102;-65
2023/12/31 13:38:46;;;;;;;231.68;224.30;;;;;;;;;;5095251;28;20048;-64
2023/12/31 13:41:12;;;;;;;212.05;205.15;;;;;;;;;;5094076;28;20135;-64
2023/12/31 13:43:39;;;;;;;213.63;206.93;;;;;;;;;;5074959;28;20121;-63
2023/12/31 13:46:05;;;;;;;214.43;208.23;;;;;;;;;;5079168;28;20044;-64
2023/12/31 13:48:32;;;;;;;156.85;151.77;;;;;;;;;;5094868;28;20464;-64
2023/12/31 13:51:00;;;;;;;223.05;216.48;;;;;;;;;;5094814;28;20074;-63
2023/12/31 13:53:26;;;;;;;225.75;219.05;;;;;;;;;;5094669;28;20102;-64
2023/12/31 13:55:53;;;;;;;228.07;221.55;;;;;;;;;;5094978;28;20044;-63
2023/12/31 13:58:19;;;;;;;232.23;225.38;;;;;;;;;;5094458;28;20087;-65
2023/12/31 14:00:50;;;;;;;201.32;195.20;;;;;;;;;;5094976;28;20056;-64
2023/12/31 14:03:16;;;;;;;202.52;196.43;;;;;;;;;;5094361;28;20083;-63
2023/12/31 14:05:43;;;;;;;227.07;220.55;;;;;;;;;;5094907;28;20048;-63
2023/12/31 14:08:11;;;;;;;222.35;215.85;;;;;;;;;;5094736;28;20158;-64